createdAt,value
2018-10-03T00:00:30.982Z,7.90
2018-10-03T00:01:34.904Z,7.90
2018-10-03T00:02:38.875Z,7.90
2018-10-03T00:03:48.324Z,7.90
2018-10-03T00:04:52.266Z,7.90
2018-10-03T00:06:03.011Z,7.90
2018-10-03T00:07:06.997Z,7.90
2018-10-03T00:08:10.980Z,7.90
2018-10-03T00:09:14.928Z,7.80
2018-10-03T00:10:18.923Z,7.80
2018-10-03T00:11:29.783Z,7.80
2018-10-03T00:12:33.687Z,7.80
2018-10-03T00:13:37.694Z,7.80
2018-10-03T00:14:41.595Z,7.80
2018-10-03T00:15:45.561Z,7.80
2018-10-03T00:16:49.543Z,7.80
2018-10-03T00:17:53.495Z,7.80
2018-10-03T00:18:57.458Z,7.80
2018-10-03T00:20:01.527Z,7.80
2018-10-03T00:21:05.481Z,7.80
2018-10-03T00:22:09.497Z,7.80
2018-10-03T00:23:13.490Z,7.80
2018-10-03T00:24:17.598Z,7.80
2018-10-03T00:25:26.597Z,7.80
2018-10-03T00:26:30.716Z,7.80
2018-10-03T00:27:34.718Z,7.70
2018-10-03T00:28:38.640Z,7.70
2018-10-03T00:29:42.587Z,7.70
2018-10-03T00:30:46.512Z,7.70
2018-10-03T00:31:50.478Z,7.70
2018-10-03T00:32:54.435Z,7.70
2018-10-03T00:33:58.395Z,7.70
2018-10-03T00:35:02.338Z,7.70
2018-10-03T00:36:06.283Z,7.70
2018-10-03T00:37:10.250Z,7.70
2018-10-03T00:38:14.328Z,7.60
2018-10-03T00:39:18.259Z,7.60
2018-10-03T00:40:22.534Z,7.60
2018-10-03T00:41:26.502Z,7.60
2018-10-03T00:42:30.520Z,7.60
2018-10-03T00:43:34.509Z,7.60
2018-10-03T00:44:38.455Z,7.60
2018-10-03T00:45:47.729Z,7.60
2018-10-03T00:46:51.740Z,7.60
2018-10-03T00:47:55.699Z,7.50
2018-10-03T00:48:59.674Z,7.50
2018-10-03T00:50:03.592Z,7.40
2018-10-03T00:51:07.639Z,7.40
2018-10-03T00:52:11.938Z,7.40
2018-10-03T00:53:16.025Z,7.40
2018-10-03T00:54:20.110Z,7.30
2018-10-03T00:55:24.020Z,7.30
2018-10-03T00:56:28.335Z,7.30
2018-10-03T00:57:32.281Z,7.30
2018-10-03T00:58:36.318Z,7.30
2018-10-03T00:59:40.294Z,7.30
2018-10-03T01:00:44.226Z,7.30
2018-10-03T01:01:48.219Z,7.30
2018-10-03T01:02:52.200Z,7.30
2018-10-03T01:03:56.135Z,7.30
2018-10-03T01:05:00.466Z,7.30
2018-10-03T01:06:04.482Z,7.30
2018-10-03T01:07:08.423Z,7.30
2018-10-03T01:08:12.395Z,7.30
2018-10-03T01:09:16.324Z,7.40
2018-10-03T01:10:20.307Z,7.40
2018-10-03T01:11:24.280Z,7.40
2018-10-03T01:12:28.233Z,7.40
2018-10-03T01:13:32.149Z,7.40
2018-10-03T01:14:36.133Z,7.40
2018-10-03T01:15:40.148Z,7.40
2018-10-03T01:16:44.107Z,7.40
2018-10-03T01:17:48.279Z,7.40
2018-10-03T01:18:52.318Z,7.40
2018-10-03T01:19:56.236Z,7.40
2018-10-03T01:21:00.195Z,7.40
2018-10-03T01:22:04.097Z,7.40
2018-10-03T01:23:08.011Z,7.40
2018-10-03T01:24:11.910Z,7.40
2018-10-03T01:25:15.845Z,7.40
2018-10-03T01:26:25.211Z,7.40
2018-10-03T01:27:30.264Z,7.40
2018-10-03T01:28:34.195Z,7.50
2018-10-03T01:29:38.088Z,7.50
2018-10-03T01:30:42.016Z,7.50
2018-10-03T01:31:45.975Z,7.60
2018-10-03T01:32:55.853Z,7.60
2018-10-03T01:33:59.811Z,7.60
2018-10-03T01:35:03.714Z,7.60
2018-10-03T01:36:07.725Z,7.60
2018-10-03T01:37:11.728Z,7.70
2018-10-03T01:38:15.674Z,7.70
2018-10-03T01:39:19.613Z,7.70
2018-10-03T01:40:23.537Z,7.70
2018-10-03T01:41:27.455Z,7.70
2018-10-03T01:42:31.425Z,7.70
2018-10-03T01:43:35.323Z,7.70
2018-10-03T01:44:39.336Z,7.70
2018-10-03T01:45:43.287Z,7.60
2018-10-03T01:46:47.247Z,7.60
2018-10-03T01:47:51.413Z,7.60
2018-10-03T01:48:55.351Z,7.60
2018-10-03T01:49:59.296Z,7.60
2018-10-03T01:51:03.240Z,7.60
2018-10-03T01:52:07.355Z,7.60
2018-10-03T01:53:11.361Z,7.60
2018-10-03T01:54:15.228Z,7.60
2018-10-03T01:55:19.275Z,7.60
2018-10-03T01:56:23.221Z,7.60
2018-10-03T01:57:27.236Z,7.60
2018-10-03T01:58:31.219Z,7.60
2018-10-03T01:59:35.172Z,7.60
2018-10-03T02:00:39.101Z,7.50
2018-10-03T02:01:43.091Z,7.50
2018-10-03T02:02:47.103Z,7.50
2018-10-03T02:03:51.163Z,7.50
2018-10-03T02:04:55.133Z,7.50
2018-10-03T02:05:59.063Z,7.50
2018-10-03T02:07:03.007Z,7.50
2018-10-03T02:08:06.921Z,7.50
2018-10-03T02:09:10.931Z,7.50
2018-10-03T02:10:14.878Z,7.50
2018-10-03T02:11:24.292Z,7.60
2018-10-03T02:12:28.238Z,7.50
2018-10-03T02:13:32.146Z,7.60
2018-10-03T02:14:36.177Z,7.60
2018-10-03T02:15:49.774Z,7.50
2018-10-03T02:16:53.703Z,7.50
2018-10-03T02:17:57.659Z,7.50
2018-10-03T02:19:02.683Z,7.50
2018-10-03T02:20:07.508Z,7.50
2018-10-03T02:21:11.419Z,7.50
2018-10-03T02:22:15.341Z,7.50
2018-10-03T02:23:19.351Z,7.50
2018-10-03T02:24:23.278Z,7.50
2018-10-03T02:25:27.264Z,7.50
2018-10-03T02:26:31.268Z,7.50
2018-10-03T02:27:35.356Z,7.50
2018-10-03T02:28:39.344Z,7.50
2018-10-03T02:29:43.278Z,7.50
2018-10-03T02:30:47.243Z,7.50
2018-10-03T02:31:51.145Z,7.50
2018-10-03T02:32:55.056Z,7.50
2018-10-03T02:33:58.986Z,7.50
2018-10-03T02:35:02.895Z,7.50
2018-10-03T02:36:06.898Z,7.50
2018-10-03T02:37:11.786Z,7.50
2018-10-03T02:38:15.705Z,7.50
2018-10-03T02:39:19.650Z,7.60
2018-10-03T02:40:23.634Z,7.60
2018-10-03T02:41:33.631Z,7.60
2018-10-03T02:42:37.599Z,7.70
2018-10-03T02:43:41.510Z,7.70
2018-10-03T02:44:45.455Z,7.70
2018-10-03T02:45:49.448Z,7.70
2018-10-03T02:46:53.407Z,7.70
2018-10-03T02:47:57.340Z,7.70
2018-10-03T02:49:01.569Z,7.70
2018-10-03T02:50:05.587Z,7.70
2018-10-03T02:51:09.537Z,7.70
2018-10-03T02:52:13.518Z,7.60
2018-10-03T02:53:17.508Z,7.60
2018-10-03T02:54:21.548Z,7.70
2018-10-03T02:55:25.592Z,7.60
2018-10-03T02:56:29.594Z,7.60
2018-10-03T02:57:33.559Z,7.60
2018-10-03T02:58:37.495Z,7.60
2018-10-03T02:59:41.389Z,7.60
2018-10-03T03:00:45.300Z,7.60
2018-10-03T03:01:55.246Z,7.60
2018-10-03T03:02:59.134Z,7.60
2018-10-03T03:04:03.080Z,7.60
2018-10-03T03:05:07.031Z,7.50
2018-10-03T03:06:11.584Z,7.50
2018-10-03T03:07:15.543Z,7.50
2018-10-03T03:08:25.139Z,7.50
2018-10-03T03:09:29.046Z,7.50
2018-10-03T03:10:33.072Z,7.50
2018-10-03T03:11:37.047Z,7.50
2018-10-03T03:12:41.127Z,7.50
2018-10-03T03:13:45.144Z,7.50
2018-10-03T03:14:49.089Z,7.50
2018-10-03T03:15:53.014Z,7.40
2018-10-03T03:16:56.938Z,7.40
2018-10-03T03:18:00.938Z,7.50
2018-10-03T03:19:04.999Z,7.40
2018-10-03T03:20:09.031Z,7.40
2018-10-03T03:21:17.902Z,7.40
2018-10-03T03:22:21.854Z,7.40
2018-10-03T03:23:25.793Z,7.40
2018-10-03T03:24:29.775Z,7.40
2018-10-03T03:25:39.177Z,7.40
2018-10-03T03:26:43.110Z,7.40
2018-10-03T03:27:47.076Z,7.40
2018-10-03T03:28:56.202Z,7.40
2018-10-03T03:30:00.211Z,7.40
2018-10-03T03:31:04.155Z,7.40
2018-10-03T03:32:08.164Z,7.40
2018-10-03T03:33:12.043Z,7.30
2018-10-03T03:34:16.012Z,7.30
2018-10-03T03:35:19.990Z,7.30
2018-10-03T03:36:29.303Z,7.30
2018-10-03T03:37:33.299Z,7.40
2018-10-03T03:38:37.260Z,7.40
2018-10-03T03:39:41.179Z,7.40
2018-10-03T03:40:45.316Z,7.40
2018-10-03T03:41:49.277Z,7.40
2018-10-03T03:42:53.266Z,7.40
2018-10-03T03:43:57.223Z,7.40
2018-10-03T03:45:01.223Z,7.40
2018-10-03T03:46:05.219Z,7.40
2018-10-03T03:47:14.297Z,7.40
2018-10-03T03:48:18.207Z,7.40
2018-10-03T03:49:22.134Z,7.40
2018-10-03T03:50:26.069Z,7.40
2018-10-03T03:51:30.052Z,7.30
2018-10-03T03:52:33.983Z,7.30
2018-10-03T03:53:37.935Z,7.30
2018-10-03T03:54:41.890Z,7.30
2018-10-03T03:55:45.935Z,7.30
2018-10-03T03:56:49.882Z,7.30
2018-10-03T03:57:53.775Z,7.30
2018-10-03T03:58:57.698Z,7.30
2018-10-03T04:00:01.663Z,7.30
2018-10-03T04:01:05.603Z,7.30
2018-10-03T04:02:09.654Z,7.40
2018-10-03T04:03:13.729Z,7.40
2018-10-03T04:04:17.646Z,7.40
2018-10-03T04:05:21.645Z,7.40
2018-10-03T04:06:25.664Z,7.40
2018-10-03T04:07:32.531Z,7.40
2018-10-03T04:08:36.502Z,7.40
2018-10-03T04:09:40.502Z,7.40
2018-10-03T04:10:44.500Z,7.50
2018-10-03T04:11:49.005Z,7.50
2018-10-03T04:12:53.194Z,7.40
2018-10-03T04:13:57.196Z,7.50
2018-10-03T04:15:01.259Z,7.50
2018-10-03T04:16:05.332Z,7.50
2018-10-03T04:17:09.304Z,7.50
2018-10-03T04:18:13.416Z,7.50
2018-10-03T04:19:17.443Z,7.60
2018-10-03T04:20:21.525Z,7.60
2018-10-03T04:21:30.899Z,7.60
2018-10-03T04:22:34.880Z,7.60
2018-10-03T04:23:39.019Z,7.70
2018-10-03T04:24:43.009Z,7.70
2018-10-03T04:25:52.515Z,7.70
2018-10-03T04:26:56.511Z,7.70
2018-10-03T04:28:00.584Z,7.70
2018-10-03T04:29:05.183Z,7.70
2018-10-03T04:30:09.313Z,7.60
2018-10-03T04:31:13.330Z,7.70
2018-10-03T04:32:17.241Z,7.70
2018-10-03T04:33:21.180Z,7.70
2018-10-03T04:34:25.163Z,7.70
2018-10-03T04:35:29.148Z,7.70
2018-10-03T04:36:33.769Z,7.70
2018-10-03T04:37:37.755Z,7.80
2018-10-03T04:38:41.719Z,7.80
2018-10-03T04:39:45.750Z,7.70
2018-10-03T04:40:49.754Z,7.70
2018-10-03T04:41:53.854Z,7.70
2018-10-03T04:42:57.866Z,7.70
2018-10-03T04:44:01.907Z,7.70
2018-10-03T04:45:06.082Z,7.70
2018-10-03T04:46:10.119Z,7.70
2018-10-03T04:47:19.615Z,7.80
2018-10-03T04:48:23.687Z,7.80
2018-10-03T04:49:27.851Z,7.70
2018-10-03T04:50:31.914Z,7.70
2018-10-03T04:51:36.109Z,7.70
2018-10-03T04:52:40.275Z,7.70
2018-10-03T04:53:44.266Z,7.80
2018-10-03T04:54:48.293Z,7.80
2018-10-03T04:55:52.505Z,7.80
2018-10-03T04:56:56.579Z,7.80
2018-10-03T04:58:00.651Z,7.80
2018-10-03T04:59:04.656Z,7.90
2018-10-03T05:00:08.830Z,7.90
2018-10-03T05:01:12.969Z,7.90
2018-10-03T05:02:18.235Z,7.90
2018-10-03T05:03:22.327Z,7.80
2018-10-03T05:04:26.358Z,7.80
2018-10-03T05:05:30.480Z,7.90
2018-10-03T05:06:34.675Z,7.90
2018-10-03T05:07:39.334Z,7.90
2018-10-03T05:08:43.459Z,7.90
2018-10-03T05:09:47.640Z,7.90
2018-10-03T05:10:51.756Z,7.80
2018-10-03T05:11:55.888Z,7.90
2018-10-03T05:12:59.963Z,7.80
2018-10-03T05:14:04.074Z,7.80
2018-10-03T05:15:08.087Z,7.80
2018-10-03T05:16:12.039Z,7.80
2018-10-03T05:17:16.170Z,7.80
2018-10-03T05:18:20.175Z,7.90
2018-10-03T05:19:24.164Z,7.90
2018-10-03T05:20:28.242Z,7.90
2018-10-03T05:21:32.242Z,7.90
2018-10-03T05:22:36.324Z,7.90
2018-10-03T05:23:40.391Z,7.90
2018-10-03T05:24:44.420Z,7.90
2018-10-03T05:25:48.457Z,7.90
2018-10-03T05:26:52.486Z,7.90
2018-10-03T05:27:56.683Z,8.00
2018-10-03T05:29:00.692Z,8.00
2018-10-03T05:30:04.808Z,7.90
2018-10-03T05:31:13.816Z,8.00
2018-10-03T05:32:17.963Z,8.00
2018-10-03T05:33:22.088Z,8.10
2018-10-03T05:34:26.119Z,8.10
2018-10-03T05:35:30.179Z,8.10
2018-10-03T05:36:34.200Z,8.00
2018-10-03T05:37:38.249Z,8.00
2018-10-03T05:38:42.326Z,8.00
2018-10-03T05:39:46.508Z,8.00
2018-10-03T05:40:50.330Z,8.10
2018-10-03T05:41:54.335Z,8.10
2018-10-03T05:42:58.412Z,8.10
2018-10-03T05:44:02.525Z,8.10
2018-10-03T05:45:06.522Z,8.10
2018-10-03T05:46:16.954Z,8.10
2018-10-03T05:47:21.092Z,8.10
2018-10-03T05:48:25.252Z,8.10
2018-10-03T05:49:29.443Z,8.20
2018-10-03T05:50:34.546Z,8.10
2018-10-03T05:51:38.901Z,8.20
2018-10-03T05:52:43.005Z,8.20
2018-10-03T05:53:47.023Z,8.20
2018-10-03T05:54:51.302Z,8.20
2018-10-03T05:55:55.429Z,8.30
2018-10-03T05:56:59.427Z,8.30
2018-10-03T05:58:03.607Z,8.30
2018-10-03T05:59:07.579Z,8.30
2018-10-03T06:00:11.648Z,8.30
2018-10-03T06:01:15.685Z,8.40
2018-10-03T06:02:19.706Z,8.40
2018-10-03T06:03:26.594Z,8.40
2018-10-03T06:04:35.947Z,8.40
2018-10-03T06:05:40.017Z,8.40
2018-10-03T06:06:49.165Z,8.50
2018-10-03T06:07:53.252Z,8.40
2018-10-03T06:09:02.948Z,8.40
2018-10-03T06:10:07.205Z,8.40
2018-10-03T06:11:11.233Z,8.50
2018-10-03T06:12:15.448Z,8.50
2018-10-03T06:13:19.294Z,8.50
2018-10-03T06:14:28.599Z,8.50
2018-10-03T06:15:38.141Z,8.60
2018-10-03T06:16:42.440Z,8.60
2018-10-03T06:17:46.516Z,8.60
2018-10-03T06:18:50.775Z,8.60
2018-10-03T06:19:54.699Z,8.60
2018-10-03T06:20:58.815Z,8.60
2018-10-03T06:22:02.950Z,8.60
2018-10-03T06:23:07.036Z,8.60
2018-10-03T06:24:16.528Z,8.60
2018-10-03T06:25:26.601Z,8.60
2018-10-03T06:26:30.988Z,8.60
2018-10-03T06:27:35.143Z,8.60
2018-10-03T06:28:39.226Z,8.60
2018-10-03T06:29:43.423Z,8.60
2018-10-03T06:30:47.460Z,8.70
2018-10-03T06:31:51.508Z,8.70
2018-10-03T06:32:58.729Z,8.70
2018-10-03T06:34:02.925Z,8.70
2018-10-03T06:35:07.084Z,8.80
2018-10-03T06:36:11.360Z,8.70
2018-10-03T06:37:15.560Z,8.70
2018-10-03T06:38:19.745Z,8.70
2018-10-03T06:39:34.473Z,8.60
2018-10-03T06:40:38.456Z,8.60
2018-10-03T06:41:42.538Z,8.60
2018-10-03T06:42:46.623Z,8.50
2018-10-03T06:43:50.807Z,8.50
2018-10-03T06:44:54.913Z,8.50
2018-10-03T06:45:58.962Z,8.50
2018-10-03T06:47:03.071Z,8.50
2018-10-03T06:48:07.181Z,8.50
2018-10-03T06:49:11.268Z,8.40
2018-10-03T06:50:15.309Z,8.50
2018-10-03T06:51:24.727Z,8.40
2018-10-03T06:52:28.869Z,8.50
2018-10-03T06:53:32.982Z,8.40
2018-10-03T06:54:38.194Z,8.40
2018-10-03T06:55:42.848Z,8.40
2018-10-03T06:56:47.032Z,8.40
2018-10-03T06:57:51.048Z,8.40
2018-10-03T06:58:55.180Z,8.50
2018-10-03T06:59:59.508Z,8.50
2018-10-03T07:01:03.607Z,8.60
2018-10-03T07:02:07.642Z,8.60
2018-10-03T07:03:11.648Z,8.60
2018-10-03T07:04:15.718Z,8.60
2018-10-03T07:05:19.880Z,8.60
2018-10-03T07:06:23.890Z,8.60
2018-10-03T07:07:28.027Z,8.50
2018-10-03T07:08:32.106Z,8.60
2018-10-03T07:09:36.268Z,8.60
2018-10-03T07:10:40.365Z,8.70
2018-10-03T07:11:44.506Z,8.70
2018-10-03T07:12:48.798Z,8.70
2018-10-03T07:13:52.964Z,8.70
2018-10-03T07:14:57.084Z,8.80
2018-10-03T07:16:01.133Z,8.70
2018-10-03T07:17:05.378Z,8.60
2018-10-03T07:18:09.424Z,8.60
2018-10-03T07:19:13.479Z,8.60
2018-10-03T07:20:17.668Z,8.50
2018-10-03T07:21:21.847Z,8.50
2018-10-03T07:22:25.979Z,8.50
2018-10-03T07:23:30.075Z,8.50
2018-10-03T07:24:34.138Z,8.40
2018-10-03T07:25:38.324Z,8.40
2018-10-03T07:26:42.487Z,8.50
2018-10-03T07:27:46.635Z,8.40
2018-10-03T07:28:50.822Z,8.40
2018-10-03T07:29:54.892Z,8.40
2018-10-03T07:30:58.916Z,8.40
2018-10-03T07:32:03.127Z,8.40
2018-10-03T07:33:07.440Z,8.40
2018-10-03T07:34:11.452Z,8.40
2018-10-03T07:35:15.445Z,8.40
2018-10-03T07:36:19.503Z,8.40
2018-10-03T07:37:23.743Z,8.40
2018-10-03T07:38:27.823Z,8.50
2018-10-03T07:39:31.884Z,8.50
2018-10-03T07:40:36.056Z,8.50
2018-10-03T07:41:40.173Z,8.50
2018-10-03T07:42:44.360Z,8.50
2018-10-03T07:43:48.439Z,8.50
2018-10-03T07:44:52.570Z,8.50
2018-10-03T07:45:56.662Z,8.50
2018-10-03T07:47:00.708Z,8.50
2018-10-03T07:48:04.873Z,8.50
2018-10-03T07:49:09.051Z,8.60
2018-10-03T07:50:13.252Z,8.70
2018-10-03T07:51:17.363Z,8.60
2018-10-03T07:52:21.504Z,8.60
2018-10-03T07:53:26.052Z,8.70
2018-10-03T07:54:30.081Z,8.70
2018-10-03T07:55:34.143Z,8.70
2018-10-03T07:56:38.146Z,8.60
2018-10-03T07:57:42.377Z,8.60
2018-10-03T07:58:46.541Z,8.50
2018-10-03T07:59:50.568Z,8.40
2018-10-03T08:00:54.616Z,8.40
2018-10-03T08:02:02.884Z,8.40
2018-10-03T08:03:11.734Z,8.40
2018-10-03T08:04:15.852Z,8.50
2018-10-03T08:05:19.867Z,8.50
2018-10-03T08:06:23.926Z,8.60
2018-10-03T08:07:28.007Z,8.60
2018-10-03T08:08:32.046Z,8.60
2018-10-03T08:09:36.151Z,8.70
2018-10-03T08:10:40.902Z,8.80
2018-10-03T08:11:44.900Z,8.80
2018-10-03T08:12:48.963Z,8.90
2018-10-03T08:13:52.973Z,8.90
2018-10-03T08:14:57.011Z,8.80
2018-10-03T08:16:01.225Z,8.90
2018-10-03T08:17:05.381Z,8.90
2018-10-03T08:18:09.543Z,8.90
2018-10-03T08:19:13.640Z,8.90
2018-10-03T08:20:23.066Z,8.90
2018-10-03T08:21:27.343Z,8.90
2018-10-03T08:22:31.440Z,8.90
2018-10-03T08:23:42.039Z,8.90
2018-10-03T08:24:46.080Z,9.00
2018-10-03T08:25:50.236Z,9.00
2018-10-03T08:26:54.316Z,9.00
2018-10-03T08:27:58.355Z,8.90
2018-10-03T08:29:02.531Z,8.90
2018-10-03T08:30:06.657Z,8.90
2018-10-03T08:31:10.795Z,8.80
2018-10-03T08:32:14.865Z,8.80
2018-10-03T08:33:24.333Z,8.70
2018-10-03T08:34:28.515Z,8.70
2018-10-03T08:35:32.672Z,8.70
2018-10-03T08:36:36.779Z,8.60
2018-10-03T08:37:40.805Z,8.60
2018-10-03T08:38:44.825Z,8.50
2018-10-03T08:39:49.117Z,8.50
2018-10-03T08:40:53.123Z,8.50
2018-10-03T08:41:57.176Z,8.40
2018-10-03T08:43:01.330Z,8.40
2018-10-03T08:44:05.397Z,8.30
2018-10-03T08:45:09.440Z,8.30
2018-10-03T08:46:13.422Z,8.30
2018-10-03T08:47:23.027Z,8.30
2018-10-03T08:48:27.142Z,8.40
2018-10-03T08:49:31.239Z,8.40
2018-10-03T08:50:35.308Z,8.40
2018-10-03T08:51:39.370Z,8.40
2018-10-03T08:52:43.404Z,8.50
2018-10-03T08:53:47.407Z,8.50
2018-10-03T08:54:51.576Z,8.50
2018-10-03T08:55:55.659Z,8.50
2018-10-03T08:56:59.784Z,8.40
2018-10-03T08:58:03.988Z,8.40
2018-10-03T08:59:08.265Z,8.40
2018-10-03T09:00:17.611Z,8.40
2018-10-03T09:01:21.801Z,8.40
2018-10-03T09:02:25.943Z,8.50
2018-10-03T09:03:30.077Z,8.60
2018-10-03T09:04:34.139Z,8.60
2018-10-03T09:05:38.159Z,8.70
2018-10-03T09:06:42.243Z,8.60
2018-10-03T09:07:46.300Z,8.60
2018-10-03T09:08:50.447Z,8.60
2018-10-03T09:09:54.678Z,8.60
2018-10-03T09:10:58.735Z,8.50
2018-10-03T09:12:08.123Z,8.60
2018-10-03T09:13:12.922Z,8.60
2018-10-03T09:14:17.004Z,8.60
2018-10-03T09:15:21.118Z,8.60
2018-10-03T09:16:25.182Z,8.60
2018-10-03T09:17:29.360Z,8.60
2018-10-03T09:18:33.487Z,8.60
2018-10-03T09:19:37.742Z,8.60
2018-10-03T09:20:41.867Z,8.60
2018-10-03T09:21:46.335Z,8.70
2018-10-03T09:22:50.455Z,8.70
2018-10-03T09:23:54.631Z,8.70
2018-10-03T09:24:58.854Z,8.70
2018-10-03T09:26:02.858Z,8.70
2018-10-03T09:27:07.068Z,8.70
2018-10-03T09:28:11.262Z,8.70
2018-10-03T09:29:15.286Z,8.70
2018-10-03T09:30:19.637Z,8.70
2018-10-03T09:31:23.786Z,8.70
2018-10-03T09:32:27.886Z,8.70
2018-10-03T09:33:32.020Z,8.70
2018-10-03T09:34:36.011Z,8.80
2018-10-03T09:35:40.061Z,8.80
2018-10-03T09:36:44.046Z,8.80
2018-10-03T09:37:48.083Z,8.80
2018-10-03T09:38:52.131Z,8.80
2018-10-03T09:39:56.309Z,8.80
2018-10-03T09:41:00.459Z,8.80
2018-10-03T09:42:04.464Z,8.80
2018-10-03T09:43:08.656Z,8.90
2018-10-03T09:44:12.808Z,8.90
2018-10-03T09:45:16.797Z,8.90
2018-10-03T09:46:21.076Z,9.00
2018-10-03T09:47:25.121Z,9.00
2018-10-03T09:48:29.260Z,9.00
2018-10-03T09:49:33.312Z,9.10
2018-10-03T09:50:37.348Z,9.10
2018-10-03T09:51:46.563Z,9.00
2018-10-03T09:52:50.685Z,9.00
2018-10-03T09:53:54.674Z,9.00
2018-10-03T09:54:58.680Z,9.00
2018-10-03T09:56:02.761Z,9.00
2018-10-03T09:57:06.988Z,8.90
2018-10-03T09:58:11.126Z,9.00
2018-10-03T09:59:15.341Z,9.00
2018-10-03T10:00:24.575Z,9.00
2018-10-03T10:01:30.882Z,9.00
2018-10-03T10:02:34.992Z,9.10
2018-10-03T10:03:39.115Z,9.00
2018-10-03T10:04:43.141Z,9.10
2018-10-03T10:05:47.137Z,9.10
2018-10-03T10:06:51.194Z,9.10
2018-10-03T10:07:55.288Z,9.10
2018-10-03T10:09:06.603Z,9.00
2018-10-03T10:10:10.673Z,8.90
2018-10-03T10:11:14.752Z,8.90
2018-10-03T10:12:18.703Z,8.90
2018-10-03T10:13:22.839Z,8.80
2018-10-03T10:14:26.876Z,8.80
2018-10-03T10:15:30.944Z,8.70
2018-10-03T10:16:35.066Z,8.70
2018-10-03T10:17:39.180Z,8.70
2018-10-03T10:18:43.331Z,8.60
2018-10-03T10:19:47.374Z,8.60
2018-10-03T10:20:51.512Z,8.50
2018-10-03T10:21:55.689Z,8.50
2018-10-03T10:22:59.926Z,8.40
2018-10-03T10:24:04.012Z,8.40
2018-10-03T10:25:08.101Z,8.30
2018-10-03T10:26:12.532Z,8.40
2018-10-03T10:27:16.624Z,8.30
2018-10-03T10:28:20.833Z,8.30
2018-10-03T10:29:24.985Z,8.40
2018-10-03T10:30:34.105Z,8.40
2018-10-03T10:31:38.159Z,8.40
2018-10-03T10:32:42.282Z,8.40
2018-10-03T10:33:46.302Z,8.40
2018-10-03T10:34:51.127Z,8.50
2018-10-03T10:35:55.130Z,8.50
2018-10-03T10:36:59.291Z,8.50
2018-10-03T10:38:03.441Z,8.50
2018-10-03T10:39:09.735Z,8.60
2018-10-03T10:40:13.923Z,8.60
2018-10-03T10:41:17.973Z,8.60
2018-10-03T10:42:22.070Z,8.60
2018-10-03T10:43:26.139Z,8.60
2018-10-03T10:44:30.356Z,8.60
2018-10-03T10:45:34.412Z,8.60
2018-10-03T10:46:38.459Z,8.60
2018-10-03T10:47:42.467Z,8.60
2018-10-03T10:48:46.549Z,8.60
2018-10-03T10:49:50.945Z,8.60
2018-10-03T10:50:55.285Z,8.60
2018-10-03T10:51:59.363Z,8.70
2018-10-03T10:53:03.540Z,8.70
2018-10-03T10:54:13.244Z,8.70
2018-10-03T10:55:17.387Z,8.70
2018-10-03T10:56:21.476Z,8.70
2018-10-03T10:57:32.171Z,8.70
2018-10-03T10:58:36.381Z,8.70
2018-10-03T10:59:40.482Z,8.70
2018-10-03T11:00:44.492Z,8.60
2018-10-03T11:01:48.920Z,8.60
2018-10-03T11:02:52.967Z,8.60
2018-10-03T11:03:57.122Z,8.50
2018-10-03T11:05:01.151Z,8.50
2018-10-03T11:06:05.236Z,8.40
2018-10-03T11:07:09.375Z,8.50
2018-10-03T11:08:14.331Z,8.50
2018-10-03T11:09:18.435Z,8.50
2018-10-03T11:10:22.507Z,8.60
2018-10-03T11:11:26.609Z,8.60
2018-10-03T11:12:30.627Z,8.70
2018-10-03T11:13:34.629Z,8.70
2018-10-03T11:14:44.674Z,8.70
2018-10-03T11:15:48.789Z,8.80
2018-10-03T11:16:52.935Z,8.80
2018-10-03T11:17:57.078Z,8.80
2018-10-03T11:19:01.119Z,8.80
2018-10-03T11:20:05.106Z,8.90
2018-10-03T11:21:09.304Z,8.90
2018-10-03T11:22:13.397Z,8.90
2018-10-03T11:23:17.459Z,8.90
2018-10-03T11:24:21.658Z,8.90
2018-10-03T11:25:25.537Z,9.00
2018-10-03T11:26:29.707Z,9.00
2018-10-03T11:27:33.819Z,9.00
2018-10-03T11:28:37.901Z,9.00
2018-10-03T11:29:42.022Z,9.10
2018-10-03T11:30:46.057Z,9.10
2018-10-03T11:31:50.076Z,9.10
2018-10-03T11:32:54.102Z,9.20
2018-10-03T11:33:58.420Z,9.20
2018-10-03T11:35:02.579Z,9.30
2018-10-03T11:36:06.652Z,9.40
2018-10-03T11:37:10.835Z,9.40
2018-10-03T11:38:14.949Z,9.40
2018-10-03T11:39:19.076Z,9.30
2018-10-03T11:40:23.135Z,9.30
2018-10-03T11:41:27.251Z,9.30
2018-10-03T11:42:31.316Z,9.30
2018-10-03T11:43:35.342Z,9.30
2018-10-03T11:44:40.480Z,9.30
2018-10-03T11:45:44.599Z,9.30
2018-10-03T11:46:48.619Z,9.30
2018-10-03T11:47:57.939Z,9.40
2018-10-03T11:49:01.982Z,9.50
2018-10-03T11:50:06.238Z,9.60
2018-10-03T11:51:10.328Z,9.70
2018-10-03T11:52:14.417Z,9.80
2018-10-03T11:53:18.529Z,9.80
2018-10-03T11:54:22.614Z,9.90
2018-10-03T11:55:26.696Z,9.80
2018-10-03T11:56:30.733Z,9.80
2018-10-03T11:57:34.778Z,9.80
2018-10-03T11:58:39.083Z,9.80
2018-10-03T11:59:43.325Z,9.60
2018-10-03T12:00:47.783Z,9.50
2018-10-03T12:01:51.788Z,9.50
2018-10-03T12:02:55.895Z,9.40
2018-10-03T12:03:59.987Z,9.40
2018-10-03T12:05:04.088Z,9.40
2018-10-03T12:06:09.577Z,9.30
2018-10-03T12:07:13.723Z,9.30
2018-10-03T12:08:17.928Z,9.20
2018-10-03T12:09:22.140Z,9.20
2018-10-03T12:10:26.264Z,9.20
2018-10-03T12:11:30.466Z,9.30
2018-10-03T12:12:34.558Z,9.40
2018-10-03T12:13:38.847Z,9.40
2018-10-03T12:14:43.045Z,9.50
2018-10-03T12:15:47.484Z,9.80
2018-10-03T12:16:51.688Z,10.30
2018-10-03T12:17:55.769Z,10.60
2018-10-03T12:18:59.849Z,10.70
2018-10-03T12:20:03.948Z,10.60
2018-10-03T12:21:08.085Z,10.50
2018-10-03T12:22:12.309Z,10.50
2018-10-03T12:23:16.500Z,10.40
2018-10-03T12:24:20.620Z,10.30
2018-10-03T12:25:24.751Z,10.20
2018-10-03T12:26:28.779Z,10.00
2018-10-03T12:27:33.059Z,9.90
2018-10-03T12:28:37.145Z,9.80
2018-10-03T12:29:46.524Z,9.60
2018-10-03T12:30:50.712Z,9.60
2018-10-03T12:31:54.740Z,9.50
2018-10-03T12:32:58.851Z,9.40
2018-10-03T12:34:03.023Z,9.40
2018-10-03T12:35:12.463Z,9.30
2018-10-03T12:36:16.646Z,9.20
2018-10-03T12:37:20.772Z,9.10
2018-10-03T12:38:24.894Z,9.10
2018-10-03T12:39:28.903Z,9.10
2018-10-03T12:40:33.369Z,9.10
2018-10-03T12:41:37.729Z,9.20
2018-10-03T12:42:41.730Z,9.20
2018-10-03T12:43:45.896Z,9.30
2018-10-03T12:44:49.988Z,9.20
2018-10-03T12:46:00.744Z,9.20
2018-10-03T12:47:04.845Z,9.20
2018-10-03T12:48:09.017Z,9.20
2018-10-03T12:49:13.259Z,9.20
2018-10-03T12:50:17.444Z,9.20
2018-10-03T12:51:26.869Z,9.10
2018-10-03T12:52:31.148Z,9.10
2018-10-03T12:53:35.205Z,9.10
2018-10-03T12:54:39.592Z,9.00
2018-10-03T12:55:44.650Z,8.90
2018-10-03T12:56:48.684Z,8.90
2018-10-03T12:57:52.779Z,8.80
2018-10-03T12:58:57.157Z,8.70
2018-10-03T13:00:01.326Z,8.60
2018-10-03T13:01:05.506Z,8.60
2018-10-03T13:02:09.518Z,8.50
2018-10-03T13:03:13.596Z,8.50
2018-10-03T13:04:23.871Z,8.50
2018-10-03T13:05:28.138Z,8.60
2018-10-03T13:06:32.228Z,8.70
2018-10-03T13:07:36.157Z,8.80
2018-10-03T13:08:40.236Z,8.90
2018-10-03T13:09:49.508Z,9.00
2018-10-03T13:10:53.528Z,9.40
2018-10-03T13:11:57.507Z,9.70
2018-10-03T13:13:06.794Z,10.00
2018-10-03T13:14:10.902Z,10.40
2018-10-03T13:15:14.927Z,10.70
2018-10-03T13:16:19.196Z,10.70
2018-10-03T13:17:23.903Z,10.70
2018-10-03T13:18:28.093Z,10.40
2018-10-03T13:19:32.278Z,10.10
2018-10-03T13:20:36.387Z,9.90
2018-10-03T13:21:40.843Z,9.80
2018-10-03T13:22:45.480Z,9.60
2018-10-03T13:23:49.477Z,9.50
2018-10-03T13:24:53.536Z,9.40
2018-10-03T13:26:03.606Z,9.30
2018-10-03T13:27:07.705Z,9.30
2018-10-03T13:28:13.611Z,9.30
2018-10-03T13:29:18.952Z,9.40
2018-10-03T13:30:23.103Z,9.50
2018-10-03T13:31:27.298Z,9.50
2018-10-03T13:32:31.404Z,9.50
2018-10-03T13:33:35.406Z,9.50
2018-10-03T13:34:39.544Z,9.50
2018-10-03T13:35:45.493Z,9.50
2018-10-03T13:36:50.873Z,9.50
2018-10-03T13:37:55.003Z,9.50
2018-10-03T13:39:01.449Z,9.50
2018-10-03T13:40:10.913Z,9.60
2018-10-03T13:41:14.928Z,9.60
2018-10-03T13:42:19.025Z,9.60
2018-10-03T13:44:37.782Z,9.50
2018-10-03T13:45:45.147Z,9.50
2018-10-03T13:46:49.253Z,9.50
2018-10-03T13:47:53.293Z,9.50
2018-10-03T13:49:09.500Z,9.40
2018-10-03T13:50:13.669Z,9.40
2018-10-03T13:51:17.740Z,9.30
2018-10-03T13:52:21.907Z,9.30
2018-10-03T13:53:26.668Z,9.30
2018-10-03T13:54:30.983Z,9.30
2018-10-03T13:55:35.006Z,9.40
2018-10-03T13:56:40.978Z,9.40
2018-10-03T13:57:46.147Z,9.50
2018-10-03T13:58:50.258Z,9.40
2018-10-03T13:59:54.606Z,9.50
2018-10-03T14:00:58.834Z,9.50
2018-10-03T14:02:02.861Z,9.50
2018-10-03T14:03:10.611Z,9.50
2018-10-03T14:04:14.972Z,9.50
2018-10-03T14:05:19.093Z,9.50
2018-10-03T14:06:23.107Z,9.50
2018-10-03T14:07:27.182Z,9.50
2018-10-03T14:08:31.293Z,9.50
2018-10-03T14:09:35.465Z,9.60
2018-10-03T14:10:40.428Z,9.50
2018-10-03T14:11:46.432Z,9.50
2018-10-03T14:12:50.437Z,9.40
2018-10-03T14:13:54.423Z,9.40
2018-10-03T14:15:05.355Z,9.40
2018-10-03T14:16:13.483Z,9.30
2018-10-03T14:17:18.326Z,9.30
2018-10-03T14:18:22.970Z,9.30
2018-10-03T14:19:27.051Z,9.20